• Join FlightAware (Why Join?)
  • Login
  • US Flag 
03:12PM EST


 

Airport Tracker/Info


-or-


 

Live Flight TrackerFlight Track Log ✈ AFL1302 ✈ 04-Sep-2014 ✈ UUEE / SVO - URMM / MRV

Flight Track Log - Related Links

Times and Time Zones

All times are in EDT time to prevent confusion due to time zone crossing. See the AFL1302 flight status page for this flight to view local times or setup timezone preferences in your user account.

Time Position Orientation Groundspeed Altitude Reporting Facility
EDT Latitude Longitude Course Direction KTS MPH feet Rate Location/Type
10:01AM 55.9664 37.3987 256° West 153 176 900  Level FlightAware ADS-B (UUWV / MOW)
10:06AM 55.6776 36.9873 158° South 360 414 11,000 1,688 Climbing FlightAware ADS-B (UUWV / MOW)
10:07AM 55.6360 37.0262 142° Southeast 359 413 11,000 1,983 Level FlightAware ADS-B (UUWV / MOW)
10:10AM 55.3591 37.4870 138° Southeast 423 487 19,000 2,057 Climbing FlightAware ADS-B (UUWV / MOW)
10:11AM 55.2772 37.2708 159° South  Level Estimated
10:12AM 55.2588 37.6471 138° Southeast 431 496 20,700  Level FlightAware ADS-B (UUWV / MOW)
10:15AM 54.8935 37.9074 161° South 457 526 26,600 1,777 Climbing FlightAware ADS-B (UUWV / MOW)
10:16AM 54.8179 37.9537 161° South 462 532 27,600 1,522 Climbing FlightAware ADS-B (UUWV / MOW)
10:16AM 54.7582 37.9901 161° South 472 543 28,300 1,200 Climbing FlightAware ADS-B (UUWV / MOW)
10:17AM 54.6736 38.0416 161° South 474 545 29,000 1,333 Climbing FlightAware ADS-B (UUWV / MOW)
10:18AM 54.5224 38.1331 161° South 476 548 30,700 1,366 Climbing FlightAware ADS-B (UUWV / MOW)
10:19AM 54.4199 38.1945 161° South 477 549 31,800 1,333 Climbing FlightAware ADS-B (UUWV / MOW)
10:20AM 54.3297 38.2545 155° Southeast 476 548 32,900 1,281 Climbing FlightAware ADS-B (UUWV / MOW)
10:20AM 54.2515 38.3171 155° Southeast 471 542 33,700 869 Climbing FlightAware ADS-B (UUWV / MOW)
10:22AM 54.0354 38.4862 155° Southeast 462 532 35,000 523 Climbing FlightAware ADS-B (UUWV / MOW)
10:23AM 53.9499 38.5529 155° Southeast 461 531 35,000  Level FlightAware ADS-B (UUWV / MOW)
10:23AM 53.8904 38.5989 156° South 461 531 35,000  Level FlightAware ADS-B (UUWV / MOW)
10:24AM 53.8298 38.6457 155° Southeast 459 528 35,000  Level FlightAware ADS-B (UUWV / MOW)
10:24AM 53.7431 38.7127 156° South 457 526 35,000  Level FlightAware ADS-B (UUWV / MOW)
10:25AM 53.6675 38.7706 156° South 457 526 35,000  Level FlightAware ADS-B (UUWV / MOW)
10:26AM 53.6006 38.8217 156° South 457 526 35,000  Level FlightAware ADS-B (UUWV / MOW)
10:26AM 53.5183 38.8843 156° South 458 527 35,000  Level FlightAware ADS-B (UUWV / MOW)
10:27AM 53.4706 38.9205 156° South 459 528 35,000  Level FlightAware ADS-B (UUWV / MOW)
10:28AM 53.3698 38.9965 156° South 459 528 35,000  Level FlightAware ADS-B (UUWV / MOW)
10:28AM 53.3106 39.0410 156° South 461 531 35,000  Level FlightAware ADS-B (UUWV / MOW)
10:29AM 53.2539 39.0835 156° South 462 532 35,000  Level FlightAware ADS-B (UUWV / MOW)
10:29AM 53.1650 39.1499 156° South 464 534 35,000  Level FlightAware ADS-B (UUWV / MOW)
10:30AM 53.0790 39.2139 156° South 464 534 35,000  Level FlightAware ADS-B (UUWV / MOW)
10:31AM 53.0235 39.2550 156° South 464 534 35,000  Level FlightAware ADS-B (UUWV / MOW)
10:31AM 52.9297 39.3242 156° South 463 533 35,000  Level FlightAware ADS-B (UUWV / MOW)
10:32AM 52.8495 39.3831 156° South 464 534 35,000  Level FlightAware ADS-B (UUWV / MOW)
10:33AM 52.8002 39.4192 156° South 464 534 35,000  Level FlightAware ADS-B (UUWV / MOW)
10:35AM 52.6296 39.5062 163° South  Level Estimated
10:36AM 52.5356 39.5537 163° South  Level Estimated
10:37AM 52.4417 39.6011 163° South  Level Estimated
10:38AM 52.3476 39.6483 163° South  Level Estimated
10:39AM 52.2536 39.6953 163° South  Level Estimated
10:40AM 52.1596 39.7421 163° South  Level Estimated
10:41AM 52.0655 39.7887 163° South  Level Estimated
10:42AM 51.9715 39.8351 163° South  Level Estimated
10:43AM 51.8774 39.8813 163° South  Level Estimated
10:44AM 51.7833 39.9273 163° South  Level Estimated
10:45AM 51.6891 39.9731 163° South  Level Estimated
10:46AM 51.5950 40.0187 163° South  Level Estimated
10:47AM 51.5008 40.0642 163° South  Level Estimated
10:48AM 51.4066 40.1094 163° South  Level Estimated
10:49AM 51.3124 40.1545 163° South  Level Estimated
10:50AM 51.2182 40.1994 163° South  Level Estimated
10:51AM 51.1240 40.2441 163° South  Level Estimated
10:52AM 51.0297 40.2886 163° South  Level Estimated
10:53AM 50.9355 40.3329 163° South  Level Estimated
10:54AM 50.8412 40.3771 164° South  Level Estimated
10:55AM 50.7469 40.4210 164° South  Level Estimated
10:56AM 50.6526 40.4648 164° South  Level Estimated
10:57AM 50.5582 40.5084 164° South  Level Estimated
10:58AM 50.4639 40.5519 164° South  Level Estimated
10:59AM 50.3695 40.5952 164° South  Level Estimated
11:00AM 50.2751 40.6383 164° South  Level Estimated
11:01AM 50.1807 40.6812 164° South  Level Estimated
11:02AM 50.0863 40.7240 164° South  Level Estimated
11:03AM 49.9919 40.7666 164° South  Level Estimated
11:04AM 49.8974 40.8090 164° South  Level Estimated
11:05AM 49.8030 40.8513 164° South  Level Estimated
11:06AM 49.7085 40.8934 164° South  Level Estimated
11:07AM 49.6140 40.9353 164° South  Level Estimated
11:08AM 49.5195 40.9771 164° South  Level Estimated
11:09AM 49.4250 41.0187 164° South  Level Estimated
11:10AM 49.3305 41.0601 164° South  Level Estimated
11:11AM 49.2359 41.1014 164° South  Level Estimated
11:12AM 49.1413 41.1426 164° South  Level Estimated
11:13AM 49.0468 41.1835 164° South  Level Estimated
11:14AM 48.9522 41.2244 164° South  Level Estimated
11:15AM 48.8576 41.2650 164° South  Level Estimated
11:16AM 48.7629 41.3055 164° South  Level Estimated
11:17AM 48.6683 41.3459 164° South  Level Estimated
11:18AM 48.5737 41.3861 164° South  Level Estimated
11:19AM 48.4790 41.4262 164° South  Level Estimated
11:20AM 48.3843 41.4661 164° South  Level Estimated
11:21AM 48.2896 41.5059 164° South  Level Estimated
11:22AM 48.1949 41.5455 164° South  Level Estimated
11:23AM 48.1002 41.5849 164° South  Level Estimated
11:24AM 48.0055 41.6243 164° South  Level Estimated
11:25AM 47.9107 41.6634 165° South  Level Estimated
11:26AM 47.8160 41.7025 165° South  Level Estimated
11:27AM 47.7212 41.7414 165° South  Level Estimated
11:28AM 47.6264 41.7801 165° South  Level Estimated
11:29AM 47.5316 41.8187 165° South  Level Estimated
11:30AM 47.4368 41.8572 165° South  Level Estimated
11:31AM 47.3420 41.8955 165° South  Level Estimated
11:32AM 47.2471 41.9337 165° South  Level Estimated
11:33AM 47.1523 41.9718 165° South  Level Estimated
11:34AM 47.0574 42.0097 165° South  Level Estimated
11:35AM 46.9625 42.0475 165° South  Level Estimated
11:36AM 46.8676 42.0852 165° South  Level Estimated
11:37AM 46.7728 42.1227 165° South  Level Estimated
11:38AM 46.6778 42.1601 165° South  Level Estimated
11:39AM 46.5829 42.1974 165° South  Level Estimated
11:40AM 46.4880 42.2345 165° South  Level Estimated
11:41AM 46.3930 42.2715 165° South  Level Estimated
11:42AM 46.2981 42.3084 165° South  Level Estimated
11:43AM 46.2031 42.3451 165° South  Level Estimated
11:44AM 46.1081 42.3817 165° South  Level Estimated
11:45AM 46.0131 42.4182 165° South  Level Estimated
11:46AM 45.9181 42.4546 165° South  Level Estimated
11:47AM 45.8231 42.4908 165° South  Level Estimated
11:48AM 45.7281 42.5270 165° South  Level Estimated
11:49AM 45.6330 42.5630 165° South  Level Estimated
11:50AM 45.5380 42.5988 165° South  Level Estimated
11:51AM 45.4429 42.6346 165° South  Level Estimated
11:52AM 45.3478 42.6702 165° South  Level Estimated
11:53AM 45.2528 42.7057 165° South  Level Estimated
11:54AM 45.1576 42.7411 165° South  Level Estimated
11:55AM 45.0625 42.7764 165° South  Level Estimated
11:56AM 44.9674 42.8116 165° South  Level Estimated
11:57AM 44.8723 42.8466 165° South  Level Estimated
11:58AM 44.7772 42.8815 165° South  Level Estimated
11:59AM 44.6820 42.9163 165° South  Level Estimated
12:00PM 44.5868 42.9510 165° South  Level Estimated
12:01PM 44.4917 42.9856 165° South  Level Estimated
12:02PM 44.3965 43.0201 165° South  Level Estimated
12:03PM 44.3013 43.0545 166° South  Level Estimated
12:04PM 44.2251 43.0819 166° South  Level Estimated
12:05PM 44.2251 43.0819 North  Level Estimated
12:06PM 44.2251 43.0819 North  Level Estimated